sensor_id;sensor_type;location;lat;lon;timestamp;temperature;humidity
23717;DHT22;22094;52.130;5.598;2022-08-21T00:00:42;13.60;99.90
23717;DHT22;22094;52.130;5.598;2022-08-21T00:03:09;13.50;99.90
23717;DHT22;22094;52.130;5.598;2022-08-21T00:05:38;13.50;99.90
23717;DHT22;22094;52.130;5.598;2022-08-21T00:08:05;13.50;99.90
23717;DHT22;22094;52.130;5.598;2022-08-21T00:10:31;13.40;99.90
23717;DHT22;22094;52.130;5.598;2022-08-21T00:12:56;13.40;99.90
23717;DHT22;22094;52.130;5.598;2022-08-21T00:15:25;13.40;99.90
23717;DHT22;22094;52.130;5.598;2022-08-21T00:17:52;13.40;99.90
23717;DHT22;22094;52.130;5.598;2022-08-21T00:20:18;13.40;99.90
23717;DHT22;22094;52.130;5.598;2022-08-21T00:22:44;13.40;99.90
23717;DHT22;22094;52.130;5.598;2022-08-21T00:25:11;13.40;99.90
23717;DHT22;22094;52.130;5.598;2022-08-21T00:27:37;13.40;99.90
23717;DHT22;22094;52.130;5.598;2022-08-21T00:30:05;13.30;99.90
23717;DHT22;22094;52.130;5.598;2022-08-21T00:32:31;13.30;99.90
23717;DHT22;22094;52.130;5.598;2022-08-21T00:34:57;13.40;99.90
23717;DHT22;22094;52.130;5.598;2022-08-21T00:37:23;13.40;99.90
23717;DHT22;22094;52.130;5.598;2022-08-21T00:39:49;13.30;99.90
23717;DHT22;22094;52.130;5.598;2022-08-21T00:42:15;13.30;99.90
23717;DHT22;22094;52.130;5.598;2022-08-21T00:44:46;13.30;99.90
23717;DHT22;22094;52.130;5.598;2022-08-21T00:47:12;13.30;99.90
23717;DHT22;22094;52.130;5.598;2022-08-21T00:49:39;13.20;99.90
23717;DHT22;22094;52.130;5.598;2022-08-21T00:52:08;13.30;99.90
23717;DHT22;22094;52.130;5.598;2022-08-21T00:54:35;13.20;99.90
23717;DHT22;22094;52.130;5.598;2022-08-21T00:57:05;13.20;99.90
23717;DHT22;22094;52.130;5.598;2022-08-21T00:59:35;13.30;99.90
23717;DHT22;22094;52.130;5.598;2022-08-21T01:02:04;13.20;99.90
23717;DHT22;22094;52.130;5.598;2022-08-21T01:04:30;13.20;99.90
23717;DHT22;22094;52.130;5.598;2022-08-21T01:06:56;13.20;99.90
23717;DHT22;22094;52.130;5.598;2022-08-21T01:09:21;13.10;99.90
23717;DHT22;22094;52.130;5.598;2022-08-21T01:11:47;13.10;99.90
23717;DHT22;22094;52.130;5.598;2022-08-21T01:14:14;13.10;99.90
23717;DHT22;22094;52.130;5.598;2022-08-21T01:16:43;13.10;99.90
23717;DHT22;22094;52.130;5.598;2022-08-21T01:19:09;13.10;99.90
23717;DHT22;22094;52.130;5.598;2022-08-21T01:21:36;13.10;99.90
23717;DHT22;22094;52.130;5.598;2022-08-21T01:24:02;13.00;99.90
23717;DHT22;22094;52.130;5.598;2022-08-21T01:26:31;13.00;99.90
23717;DHT22;22094;52.130;5.598;2022-08-21T01:31:42;13.00;99.90
23717;DHT22;22094;52.130;5.598;2022-08-21T01:34:09;13.00;99.90
23717;DHT22;22094;52.130;5.598;2022-08-21T01:36:35;13.10;99.90
23717;DHT22;22094;52.130;5.598;2022-08-21T01:39:01;13.00;99.90
23717;DHT22;22094;52.130;5.598;2022-08-21T01:41:27;13.00;99.90
23717;DHT22;22094;52.130;5.598;2022-08-21T01:43:52;13.00;99.90
23717;DHT22;22094;52.130;5.598;2022-08-21T01:46:18;12.90;99.90
23717;DHT22;22094;52.130;5.598;2022-08-21T01:48:43;12.90;99.90
23717;DHT22;22094;52.130;5.598;2022-08-21T01:51:11;12.90;99.90
23717;DHT22;22094;52.130;5.598;2022-08-21T01:53:37;12.80;99.90
23717;DHT22;22094;52.130;5.598;2022-08-21T01:56:06;12.70;99.90
23717;DHT22;22094;52.130;5.598;2022-08-21T01:58:33;12.70;99.90
23717;DHT22;22094;52.130;5.598;2022-08-21T02:00:59;12.70;99.90
23717;DHT22;22094;52.130;5.598;2022-08-21T02:03:27;12.70;99.90
23717;DHT22;22094;52.130;5.598;2022-08-21T02:05:53;12.70;99.90
23717;DHT22;22094;52.130;5.598;2022-08-21T02:08:18;12.70;99.90
23717;DHT22;22094;52.130;5.598;2022-08-21T02:10:44;12.70;99.90
23717;DHT22;22094;52.130;5.598;2022-08-21T02:13:09;12.60;99.90
23717;DHT22;22094;52.130;5.598;2022-08-21T02:15:35;12.60;99.90
23717;DHT22;22094;52.130;5.598;2022-08-21T02:18:02;12.70;99.90
23717;DHT22;22094;52.130;5.598;2022-08-21T02:20:31;12.70;99.90
23717;DHT22;22094;52.130;5.598;2022-08-21T02:22:57;12.70;99.90
23717;DHT22;22094;52.130;5.598;2022-08-21T02:25:25;12.70;99.90
23717;DHT22;22094;52.130;5.598;2022-08-21T02:27:51;12.60;99.90
23717;DHT22;22094;52.130;5.598;2022-08-21T02:30:29;12.60;99.90
23717;DHT22;22094;52.130;5.598;2022-08-21T02:32:56;12.60;99.90
23717;DHT22;22094;52.130;5.598;2022-08-21T02:35:23;12.60;99.90
23717;DHT22;22094;52.130;5.598;2022-08-21T02:37:51;12.50;99.90
23717;DHT22;22094;52.130;5.598;2022-08-21T02:40:20;12.60;99.90
23717;DHT22;22094;52.130;5.598;2022-08-21T02:42:46;12.50;99.90
23717;DHT22;22094;52.130;5.598;2022-08-21T02:45:12;12.50;99.90
23717;DHT22;22094;52.130;5.598;2022-08-21T02:47:39;12.50;99.90
23717;DHT22;22094;52.130;5.598;2022-08-21T02:50:06;12.50;99.90
23717;DHT22;22094;52.130;5.598;2022-08-21T02:52:32;12.50;99.90
23717;DHT22;22094;52.130;5.598;2022-08-21T02:54:59;12.60;99.90
23717;DHT22;22094;52.130;5.598;2022-08-21T02:57:25;12.60;99.90
23717;DHT22;22094;52.130;5.598;2022-08-21T02:59:50;12.50;99.90
23717;DHT22;22094;52.130;5.598;2022-08-21T03:02:16;12.50;99.90
23717;DHT22;22094;52.130;5.598;2022-08-21T03:04:41;12.50;99.90
23717;DHT22;22094;52.130;5.598;2022-08-21T03:07:07;12.40;99.90
23717;DHT22;22094;52.130;5.598;2022-08-21T03:09:32;12.50;99.90
23717;DHT22;22094;52.130;5.598;2022-08-21T03:11:58;12.50;99.90
23717;DHT22;22094;52.130;5.598;2022-08-21T03:14:23;12.60;99.90
23717;DHT22;22094;52.130;5.598;2022-08-21T03:16:49;12.70;99.90
23717;DHT22;22094;52.130;5.598;2022-08-21T03:19:15;12.70;99.90
23717;DHT22;22094;52.130;5.598;2022-08-21T03:21:41;12.80;99.90
23717;DHT22;22094;52.130;5.598;2022-08-21T03:24:06;12.90;99.90
23717;DHT22;22094;52.130;5.598;2022-08-21T03:26:32;12.90;99.90
23717;DHT22;22094;52.130;5.598;2022-08-21T03:28:58;12.80;99.90
23717;DHT22;22094;52.130;5.598;2022-08-21T03:31:24;12.80;99.90
23717;DHT22;22094;52.130;5.598;2022-08-21T03:33:53;12.80;99.90
23717;DHT22;22094;52.130;5.598;2022-08-21T03:36:20;12.70;99.90
23717;DHT22;22094;52.130;5.598;2022-08-21T03:38:46;12.70;99.90
23717;DHT22;22094;52.130;5.598;2022-08-21T03:41:11;12.60;99.90
23717;DHT22;22094;52.130;5.598;2022-08-21T03:43:37;12.60;99.90
23717;DHT22;22094;52.130;5.598;2022-08-21T03:46:04;12.50;99.90
23717;DHT22;22094;52.130;5.598;2022-08-21T03:48:31;12.40;99.90
23717;DHT22;22094;52.130;5.598;2022-08-21T03:50:57;12.40;99.90
23717;DHT22;22094;52.130;5.598;2022-08-21T03:53:23;12.30;99.90
23717;DHT22;22094;52.130;5.598;2022-08-21T03:55:50;12.30;99.90
23717;DHT22;22094;52.130;5.598;2022-08-21T03:58:20;12.30;99.90
23717;DHT22;22094;52.130;5.598;2022-08-21T04:00:48;12.30;99.90
23717;DHT22;22094;52.130;5.598;2022-08-21T04:03:14;12.30;99.90
23717;DHT22;22094;52.130;5.598;2022-08-21T04:05:40;12.40;99.90
23717;DHT22;22094;52.130;5.598;2022-08-21T04:08:06;12.40;99.90
23717;DHT22;22094;52.130;5.598;2022-08-21T04:10:37;12.30;99.90
23717;DHT22;22094;52.130;5.598;2022-08-21T04:13:04;12.20;99.90
23717;DHT22;22094;52.130;5.598;2022-08-21T04:15:29;12.20;99.90
23717;DHT22;22094;52.130;5.598;2022-08-21T04:17:55;12.20;99.90
23717;DHT22;22094;52.130;5.598;2022-08-21T04:20:22;12.20;99.90
23717;DHT22;22094;52.130;5.598;2022-08-21T04:22:49;12.30;99.90
23717;DHT22;22094;52.130;5.598;2022-08-21T04:25:17;12.40;99.90
23717;DHT22;22094;52.130;5.598;2022-08-21T04:27:44;12.50;99.90
23717;DHT22;22094;52.130;5.598;2022-08-21T04:30:11;12.60;99.90
23717;DHT22;22094;52.130;5.598;2022-08-21T04:32:38;12.60;99.90
23717;DHT22;22094;52.130;5.598;2022-08-21T04:35:11;12.60;99.90
23717;DHT22;22094;52.130;5.598;2022-08-21T04:37:37;12.70;99.90
23717;DHT22;22094;52.130;5.598;2022-08-21T04:40:04;12.70;99.90
23717;DHT22;22094;52.130;5.598;2022-08-21T04:42:30;12.90;99.90
23717;DHT22;22094;52.130;5.598;2022-08-21T04:44:55;12.90;99.90
23717;DHT22;22094;52.130;5.598;2022-08-21T04:47:22;12.80;99.90
23717;DHT22;22094;52.130;5.598;2022-08-21T04:49:49;12.70;99.90
23717;DHT22;22094;52.130;5.598;2022-08-21T04:52:19;12.70;99.90
23717;DHT22;22094;52.130;5.598;2022-08-21T04:54:45;12.80;99.90
23717;DHT22;22094;52.130;5.598;2022-08-21T04:57:14;12.60;99.90
23717;DHT22;22094;52.130;5.598;2022-08-21T04:59:47;12.60;99.90
23717;DHT22;22094;52.130;5.598;2022-08-21T05:02:13;12.50;99.90
23717;DHT22;22094;52.130;5.598;2022-08-21T05:04:43;12.50;99.90
23717;DHT22;22094;52.130;5.598;2022-08-21T05:07:14;12.60;99.90
23717;DHT22;22094;52.130;5.598;2022-08-21T05:09:40;12.60;99.90
23717;DHT22;22094;52.130;5.598;2022-08-21T05:12:06;12.60;99.90
23717;DHT22;22094;52.130;5.598;2022-08-21T05:14:32;12.70;99.90
23717;DHT22;22094;52.130;5.598;2022-08-21T05:16:58;12.60;99.90
23717;DHT22;22094;52.130;5.598;2022-08-21T05:19:24;14.80;99.90
23717;DHT22;22094;52.130;5.598;2022-08-21T05:21:51;12.90;99.90
23717;DHT22;22094;52.130;5.598;2022-08-21T05:24:16;14.80;99.90
23717;DHT22;22094;52.130;5.598;2022-08-21T05:26:43;10.90;99.90
23717;DHT22;22094;52.130;5.598;2022-08-21T05:29:09;13.20;99.90
23717;DHT22;22094;52.130;5.598;2022-08-21T05:31:35;13.30;99.90
23717;DHT22;22094;52.130;5.598;2022-08-21T05:34:00;13.50;99.90
23717;DHT22;22094;52.130;5.598;2022-08-21T05:38:52;14.20;99.90
23717;DHT22;22094;52.130;5.598;2022-08-21T05:41:17;14.30;99.90
23717;DHT22;22094;52.130;5.598;2022-08-21T05:43:43;14.50;99.90
23717;DHT22;22094;52.130;5.598;2022-08-21T05:46:09;14.70;99.90
23717;DHT22;22094;52.130;5.598;2022-08-21T05:48:35;14.80;99.90
23717;DHT22;22094;52.130;5.598;2022-08-21T05:51:10;14.90;99.90
23717;DHT22;22094;52.130;5.598;2022-08-21T05:53:36;15.10;99.90
23717;DHT22;22094;52.130;5.598;2022-08-21T05:56:02;15.20;99.90
23717;DHT22;22094;52.130;5.598;2022-08-21T05:58:30;16.40;99.90
23717;DHT22;22094;52.130;5.598;2022-08-21T06:00:55;18.40;99.90
23717;DHT22;22094;52.130;5.598;2022-08-21T06:03:25;16.40;99.90
23717;DHT22;22094;52.130;5.598;2022-08-21T06:05:52;16.70;99.90
23717;DHT22;22094;52.130;5.598;2022-08-21T06:08:19;16.80;99.90
23717;DHT22;22094;52.130;5.598;2022-08-21T06:10:46;16.00;99.90
23717;DHT22;22094;52.130;5.598;2022-08-21T06:13:12;16.70;99.90
23717;DHT22;22094;52.130;5.598;2022-08-21T06:15:38;16.30;99.90
23717;DHT22;22094;52.130;5.598;2022-08-21T06:20:30;16.90;99.90
23717;DHT22;22094;52.130;5.598;2022-08-21T06:22:56;17.10;99.90
23717;DHT22;22094;52.130;5.598;2022-08-21T06:25:22;17.10;99.90
23717;DHT22;22094;52.130;5.598;2022-08-21T06:27:47;17.80;99.90
23717;DHT22;22094;52.130;5.598;2022-08-21T06:30:13;17.50;99.90
23717;DHT22;22094;52.130;5.598;2022-08-21T06:32:39;17.60;99.90
23717;DHT22;22094;52.130;5.598;2022-08-21T06:35:05;19.20;99.90
23717;DHT22;22094;52.130;5.598;2022-08-21T06:39:57;17.40;99.90
23717;DHT22;22094;52.130;5.598;2022-08-21T06:42:23;17.80;99.90
23717;DHT22;22094;52.130;5.598;2022-08-21T06:44:48;17.70;99.90
23717;DHT22;22094;52.130;5.598;2022-08-21T06:47:14;17.60;99.90
23717;DHT22;22094;52.130;5.598;2022-08-21T06:52:12;17.50;99.90
23717;DHT22;22094;52.130;5.598;2022-08-21T06:54:39;18.30;99.90
23717;DHT22;22094;52.130;5.598;2022-08-21T06:57:05;18.10;99.90
23717;DHT22;22094;52.130;5.598;2022-08-21T06:59:31;18.50;99.90
23717;DHT22;22094;52.130;5.598;2022-08-21T07:14:07;19.60;99.90
23717;DHT22;22094;52.130;5.598;2022-08-21T07:26:19;19.80;99.90
23717;DHT22;22094;52.130;5.598;2022-08-21T07:31:15;19.90;99.90
23717;DHT22;22094;52.130;5.598;2022-08-21T07:33:40;19.90;99.90
23717;DHT22;22094;52.130;5.598;2022-08-21T07:41:00;20.00;99.90
23717;DHT22;22094;52.130;5.598;2022-08-21T07:55:37;19.20;99.90
23717;DHT22;22094;52.130;5.598;2022-08-21T08:05:25;20.80;99.90
23717;DHT22;22094;52.130;5.598;2022-08-21T08:10:18;22.40;99.90
23717;DHT22;22094;52.130;5.598;2022-08-21T08:12:44;21.10;99.90
23717;DHT22;22094;52.130;5.598;2022-08-21T08:15:14;21.00;99.90
23717;DHT22;22094;52.130;5.598;2022-08-21T08:20:07;21.80;99.90
23717;DHT22;22094;52.130;5.598;2022-08-21T08:22:37;21.60;99.90
23717;DHT22;22094;52.130;5.598;2022-08-21T08:25:05;21.70;99.90
23717;DHT22;22094;52.130;5.598;2022-08-21T08:37:17;23.50;99.90
23717;DHT22;22094;52.130;5.598;2022-08-21T08:42:32;21.80;99.90
23717;DHT22;22094;52.130;5.598;2022-08-21T08:45:05;21.90;99.90
23717;DHT22;22094;52.130;5.598;2022-08-21T08:47:40;21.60;99.90
23717;DHT22;22094;52.130;5.598;2022-08-21T08:50:20;21.80;99.90
23717;DHT22;22094;52.130;5.598;2022-08-21T08:53:11;22.40;99.90
23717;DHT22;22094;52.130;5.598;2022-08-21T08:55:40;22.70;99.90
23717;DHT22;22094;52.130;5.598;2022-08-21T08:58:09;22.90;99.90
23717;DHT22;22094;52.130;5.598;2022-08-21T09:00:38;22.80;99.90
23717;DHT22;22094;52.130;5.598;2022-08-21T09:05:59;23.50;99.90
23717;DHT22;22094;52.130;5.598;2022-08-21T09:24:56;24.70;99.90
23717;DHT22;22094;52.130;5.598;2022-08-21T09:29:54;24.20;99.90
23717;DHT22;22094;52.130;5.598;2022-08-21T09:47:18;22.30;99.90
23717;DHT22;22094;52.130;5.598;2022-08-21T09:52:21;25.30;99.90
23717;DHT22;22094;52.130;5.598;2022-08-21T09:54:51;23.80;99.90
23717;DHT22;22094;52.130;5.598;2022-08-21T09:57:26;25.20;99.90
23717;DHT22;22094;52.130;5.598;2022-08-21T10:00:31;24.20;99.90
23717;DHT22;22094;52.130;5.598;2022-08-21T10:03:28;24.60;99.90
23717;DHT22;22094;52.130;5.598;2022-08-21T10:05:59;25.10;99.90
23717;DHT22;22094;52.130;5.598;2022-08-21T10:08:28;25.10;99.90
23717;DHT22;22094;52.130;5.598;2022-08-21T10:10:57;25.10;99.90
23717;DHT22;22094;52.130;5.598;2022-08-21T10:16:33;22.90;99.90
23717;DHT22;22094;52.130;5.598;2022-08-21T10:24:21;24.90;99.90
23717;DHT22;22094;52.130;5.598;2022-08-21T10:29:57;25.20;99.90
23717;DHT22;22094;52.130;5.598;2022-08-21T10:41:46;26.00;99.90
23717;DHT22;22094;52.130;5.598;2022-08-21T10:49:48;26.00;99.90
23717;DHT22;22094;52.130;5.598;2022-08-21T10:52:36;25.00;99.90
23717;DHT22;22094;52.130;5.598;2022-08-21T10:57:49;25.80;99.90
23717;DHT22;22094;52.130;5.598;2022-08-21T11:02:54;25.30;99.90
23717;DHT22;22094;52.130;5.598;2022-08-21T11:05:33;25.10;99.90
23717;DHT22;22094;52.130;5.598;2022-08-21T11:08:12;25.20;99.90
23717;DHT22;22094;52.130;5.598;2022-08-21T11:13:22;25.50;99.90
23717;DHT22;22094;52.130;5.598;2022-08-21T11:16:02;25.80;99.90
23717;DHT22;22094;52.130;5.598;2022-08-21T11:19:00;26.10;99.90
23717;DHT22;22094;52.130;5.598;2022-08-21T11:24:24;27.10;99.90
23717;DHT22;22094;52.130;5.598;2022-08-21T11:40:12;26.70;99.90
23717;DHT22;22094;52.130;5.598;2022-08-21T11:53:08;27.20;99.90
23717;DHT22;22094;52.130;5.598;2022-08-21T11:55:50;27.00;99.90
23717;DHT22;22094;52.130;5.598;2022-08-21T11:58:39;27.20;99.90
23717;DHT22;22094;52.130;5.598;2022-08-21T12:06:33;27.40;99.90
23717;DHT22;22094;52.130;5.598;2022-08-21T12:26:54;28.20;99.90
23717;DHT22;22094;52.130;5.598;2022-08-21T12:37:18;28.30;99.90
23717;DHT22;22094;52.130;5.598;2022-08-21T12:42:29;27.70;99.90
23717;DHT22;22094;52.130;5.598;2022-08-21T12:45:02;27.20;99.90
23717;DHT22;22094;52.130;5.598;2022-08-21T12:47:48;27.00;99.90
23717;DHT22;22094;52.130;5.598;2022-08-21T12:50:24;26.70;99.90
23717;DHT22;22094;52.130;5.598;2022-08-21T12:55:29;26.00;99.90
23717;DHT22;22094;52.130;5.598;2022-08-21T13:00:25;25.50;99.90
23717;DHT22;22094;52.130;5.598;2022-08-21T13:10:26;26.90;99.90
23717;DHT22;22094;52.130;5.598;2022-08-21T13:12:58;27.40;99.90
23717;DHT22;22094;52.130;5.598;2022-08-21T13:15:33;27.90;99.90
23717;DHT22;22094;52.130;5.598;2022-08-21T13:18:00;27.90;99.90
23717;DHT22;22094;52.130;5.598;2022-08-21T13:30:45;28.90;99.90
23717;DHT22;22094;52.130;5.598;2022-08-21T13:33:24;29.10;99.90
23717;DHT22;22094;52.130;5.598;2022-08-21T13:38:28;28.70;99.90
23717;DHT22;22094;52.130;5.598;2022-08-21T13:40:57;29.00;99.90
23717;DHT22;22094;52.130;5.598;2022-08-21T13:43:28;27.30;99.90
23717;DHT22;22094;52.130;5.598;2022-08-21T13:45:55;29.00;99.90
23717;DHT22;22094;52.130;5.598;2022-08-21T13:48:23;29.10;99.90
23717;DHT22;22094;52.130;5.598;2022-08-21T13:53:28;29.00;99.90
23717;DHT22;22094;52.130;5.598;2022-08-21T13:58:31;28.40;99.90
23717;DHT22;22094;52.130;5.598;2022-08-21T14:00:58;28.50;99.90
23717;DHT22;22094;52.130;5.598;2022-08-21T14:06:26;30.60;99.90
23717;DHT22;22094;52.130;5.598;2022-08-21T14:08:57;26.20;99.90
23717;DHT22;22094;52.130;5.598;2022-08-21T14:13:57;27.40;99.90
23717;DHT22;22094;52.130;5.598;2022-08-21T14:16:26;27.50;99.90
23717;DHT22;22094;52.130;5.598;2022-08-21T14:19:09;27.50;99.90
23717;DHT22;22094;52.130;5.598;2022-08-21T14:21:39;27.60;99.90
23717;DHT22;22094;52.130;5.598;2022-08-21T14:24:30;28.10;99.90
23717;DHT22;22094;52.130;5.598;2022-08-21T14:27:06;27.70;99.90
23717;DHT22;22094;52.130;5.598;2022-08-21T14:29:38;27.90;99.90
23717;DHT22;22094;52.130;5.598;2022-08-21T14:32:22;27.60;99.90
23717;DHT22;22094;52.130;5.598;2022-08-21T14:44:33;23.20;99.90
23717;DHT22;22094;52.130;5.598;2022-08-21T14:49:26;25.10;99.90
23717;DHT22;22094;52.130;5.598;2022-08-21T14:54:24;23.80;99.90
23717;DHT22;22094;52.130;5.598;2022-08-21T14:59:16;25.00;99.90
23717;DHT22;22094;52.130;5.598;2022-08-21T15:13:57;24.30;99.90
23717;DHT22;22094;52.130;5.598;2022-08-21T15:43:30;23.30;99.90
23717;DHT22;22094;52.130;5.598;2022-08-21T15:58:06;24.40;99.90
23717;DHT22;22094;52.130;5.598;2022-08-21T16:03:04;24.40;99.90
23717;DHT22;22094;52.130;5.598;2022-08-21T16:10:24;24.50;99.90
23717;DHT22;22094;52.130;5.598;2022-08-21T16:13:03;25.80;99.90
23717;DHT22;22094;52.130;5.598;2022-08-21T16:20:26;25.30;99.90
23717;DHT22;22094;52.130;5.598;2022-08-21T16:22:53;24.90;99.90
23717;DHT22;22094;52.130;5.598;2022-08-21T16:32:42;24.70;99.90
23717;DHT22;22094;52.130;5.598;2022-08-21T16:35:11;23.20;99.90
23717;DHT22;22094;52.130;5.598;2022-08-21T16:59:37;23.60;99.90
23717;DHT22;22094;52.130;5.598;2022-08-21T17:02:20;23.40;99.90
23717;DHT22;22094;52.130;5.598;2022-08-21T17:14:35;22.50;99.90
23717;DHT22;22094;52.130;5.598;2022-08-21T17:17:09;23.80;99.90
23717;DHT22;22094;52.130;5.598;2022-08-21T17:24:27;22.40;99.90
23717;DHT22;22094;52.130;5.598;2022-08-21T17:26:54;22.30;99.90
23717;DHT22;22094;52.130;5.598;2022-08-21T17:29:36;20.80;99.90
23717;DHT22;22094;52.130;5.598;2022-08-21T17:32:04;22.20;99.90
23717;DHT22;22094;52.130;5.598;2022-08-21T17:44:18;21.90;99.90
23717;DHT22;22094;52.130;5.598;2022-08-21T17:49:13;21.80;99.90
23717;DHT22;22094;52.130;5.598;2022-08-21T17:56:40;21.60;99.90
23717;DHT22;22094;52.130;5.598;2022-08-21T18:01:37;21.40;99.90
23717;DHT22;22094;52.130;5.598;2022-08-21T18:04:04;21.40;99.90
23717;DHT22;22094;52.130;5.598;2022-08-21T18:08:55;21.30;99.90
23717;DHT22;22094;52.130;5.598;2022-08-21T18:11:24;21.30;99.90
23717;DHT22;22094;52.130;5.598;2022-08-21T18:13:53;20.80;99.90
23717;DHT22;22094;52.130;5.598;2022-08-21T18:18:46;21.20;99.90
23717;DHT22;22094;52.130;5.598;2022-08-21T18:21:13;21.20;99.90
23717;DHT22;22094;52.130;5.598;2022-08-21T18:23:42;21.10;99.90
23717;DHT22;22094;52.130;5.598;2022-08-21T18:26:08;21.00;99.90
23717;DHT22;22094;52.130;5.598;2022-08-21T18:28:37;20.90;99.90
23717;DHT22;22094;52.130;5.598;2022-08-21T18:31:03;20.90;99.90
23717;DHT22;22094;52.130;5.598;2022-08-21T18:33:29;20.80;99.90
23717;DHT22;22094;52.130;5.598;2022-08-21T18:35:55;20.70;99.90
23717;DHT22;22094;52.130;5.598;2022-08-21T18:38:21;20.70;99.90
23717;DHT22;22094;52.130;5.598;2022-08-21T18:40:51;20.70;99.90
23717;DHT22;22094;52.130;5.598;2022-08-21T18:43:19;20.50;99.90
23717;DHT22;22094;52.130;5.598;2022-08-21T18:45:45;20.50;99.90
23717;DHT22;22094;52.130;5.598;2022-08-21T18:48:12;20.40;99.90
23717;DHT22;22094;52.130;5.598;2022-08-21T18:50:40;20.50;99.90
23717;DHT22;22094;52.130;5.598;2022-08-21T18:53:06;20.30;99.90
23717;DHT22;22094;52.130;5.598;2022-08-21T18:55:34;20.20;99.90
23717;DHT22;22094;52.130;5.598;2022-08-21T18:58:00;20.10;99.90
23717;DHT22;22094;52.130;5.598;2022-08-21T19:00:29;20.10;99.90
23717;DHT22;22094;52.130;5.598;2022-08-21T19:02:57;20.00;99.90
23717;DHT22;22094;52.130;5.598;2022-08-21T19:05:23;20.00;99.90
23717;DHT22;22094;52.130;5.598;2022-08-21T19:07:50;19.90;99.90
23717;DHT22;22094;52.130;5.598;2022-08-21T19:10:17;19.90;99.90
23717;DHT22;22094;52.130;5.598;2022-08-21T19:12:43;19.80;99.90
23717;DHT22;22094;52.130;5.598;2022-08-21T19:15:14;19.80;99.90
23717;DHT22;22094;52.130;5.598;2022-08-21T19:17:41;19.80;99.90
23717;DHT22;22094;52.130;5.598;2022-08-21T19:20:11;19.50;99.90
23717;DHT22;22094;52.130;5.598;2022-08-21T19:22:38;19.60;99.90
23717;DHT22;22094;52.130;5.598;2022-08-21T19:25:04;19.60;99.90
23717;DHT22;22094;52.130;5.598;2022-08-21T19:27:30;19.50;99.90
23717;DHT22;22094;52.130;5.598;2022-08-21T19:29:56;19.40;99.90
23717;DHT22;22094;52.130;5.598;2022-08-21T19:32:22;19.40;99.90
23717;DHT22;22094;52.130;5.598;2022-08-21T19:34:47;19.30;99.90
23717;DHT22;22094;52.130;5.598;2022-08-21T19:37:14;19.30;99.90
23717;DHT22;22094;52.130;5.598;2022-08-21T19:39:41;19.20;99.90
23717;DHT22;22094;52.130;5.598;2022-08-21T19:42:08;19.20;99.90
23717;DHT22;22094;52.130;5.598;2022-08-21T19:44:35;19.20;99.90
23717;DHT22;22094;52.130;5.598;2022-08-21T19:47:02;19.10;99.90
23717;DHT22;22094;52.130;5.598;2022-08-21T19:49:32;19.10;99.90
23717;DHT22;22094;52.130;5.598;2022-08-21T19:51:58;19.00;99.90
23717;DHT22;22094;52.130;5.598;2022-08-21T19:54:27;19.00;99.90
23717;DHT22;22094;52.130;5.598;2022-08-21T19:56:54;18.90;99.90
23717;DHT22;22094;52.130;5.598;2022-08-21T19:59:21;18.80;99.90
23717;DHT22;22094;52.130;5.598;2022-08-21T20:01:47;18.70;99.90
23717;DHT22;22094;52.130;5.598;2022-08-21T20:04:13;18.70;99.90
23717;DHT22;22094;52.130;5.598;2022-08-21T20:06:39;18.60;99.90
23717;DHT22;22094;52.130;5.598;2022-08-21T20:09:06;18.50;99.90
23717;DHT22;22094;52.130;5.598;2022-08-21T20:11:45;18.40;99.90
23717;DHT22;22094;52.130;5.598;2022-08-21T20:14:12;18.40;99.90
23717;DHT22;22094;52.130;5.598;2022-08-21T20:16:40;18.40;99.90
23717;DHT22;22094;52.130;5.598;2022-08-21T20:19:06;18.30;99.90
23717;DHT22;22094;52.130;5.598;2022-08-21T20:21:33;18.20;99.90
23717;DHT22;22094;52.130;5.598;2022-08-21T20:23:59;18.20;99.90
23717;DHT22;22094;52.130;5.598;2022-08-21T20:26:25;18.20;99.90
23717;DHT22;22094;52.130;5.598;2022-08-21T20:28:51;18.10;99.90
23717;DHT22;22094;52.130;5.598;2022-08-21T20:31:17;18.10;99.90
23717;DHT22;22094;52.130;5.598;2022-08-21T20:33:43;18.00;99.90
23717;DHT22;22094;52.130;5.598;2022-08-21T20:36:08;18.10;99.90
23717;DHT22;22094;52.130;5.598;2022-08-21T20:38:35;18.00;99.90
23717;DHT22;22094;52.130;5.598;2022-08-21T20:41:00;17.90;99.90
23717;DHT22;22094;52.130;5.598;2022-08-21T20:43:26;17.90;99.90
23717;DHT22;22094;52.130;5.598;2022-08-21T20:45:52;17.80;99.90
23717;DHT22;22094;52.130;5.598;2022-08-21T20:48:35;17.80;99.90
23717;DHT22;22094;52.130;5.598;2022-08-21T20:53:42;17.80;99.90
23717;DHT22;22094;52.130;5.598;2022-08-21T20:56:13;17.80;99.90
23717;DHT22;22094;52.130;5.598;2022-08-21T20:58:46;17.80;99.90
23717;DHT22;22094;52.130;5.598;2022-08-21T21:01:14;17.80;99.90
23717;DHT22;22094;52.130;5.598;2022-08-21T21:03:44;17.70;99.90
23717;DHT22;22094;52.130;5.598;2022-08-21T21:06:14;17.70;99.90
23717;DHT22;22094;52.130;5.598;2022-08-21T21:08:45;17.70;99.90
23717;DHT22;22094;52.130;5.598;2022-08-21T21:14:21;17.60;99.90
23717;DHT22;22094;52.130;5.598;2022-08-21T21:16:56;17.70;99.90
23717;DHT22;22094;52.130;5.598;2022-08-21T21:19:45;17.60;99.90
23717;DHT22;22094;52.130;5.598;2022-08-21T21:22:20;17.70;99.90
23717;DHT22;22094;52.130;5.598;2022-08-21T21:25:07;17.70;99.90
23717;DHT22;22094;52.130;5.598;2022-08-21T21:27:38;17.70;99.90
23717;DHT22;22094;52.130;5.598;2022-08-21T21:30:11;17.70;99.90
23717;DHT22;22094;52.130;5.598;2022-08-21T21:32:37;17.70;99.90
23717;DHT22;22094;52.130;5.598;2022-08-21T21:35:04;17.70;99.90
23717;DHT22;22094;52.130;5.598;2022-08-21T21:40:43;17.60;99.90
23717;DHT22;22094;52.130;5.598;2022-08-21T21:52:01;17.60;99.90
23717;DHT22;22094;52.130;5.598;2022-08-21T22:00:04;17.60;99.90
23717;DHT22;22094;52.130;5.598;2022-08-21T22:05:32;17.60;99.90
23717;DHT22;22094;52.130;5.598;2022-08-21T22:08:31;17.60;99.90
23717;DHT22;22094;52.130;5.598;2022-08-21T22:11:10;17.50;99.90
23717;DHT22;22094;52.130;5.598;2022-08-21T22:14:01;17.50;99.90
23717;DHT22;22094;52.130;5.598;2022-08-21T22:16:29;17.50;99.90
23717;DHT22;22094;52.130;5.598;2022-08-21T22:19:00;17.50;99.90
23717;DHT22;22094;52.130;5.598;2022-08-21T22:21:39;17.50;99.90
23717;DHT22;22094;52.130;5.598;2022-08-21T22:24:15;17.40;99.90
23717;DHT22;22094;52.130;5.598;2022-08-21T22:26:46;17.40;99.90
23717;DHT22;22094;52.130;5.598;2022-08-21T22:29:15;17.40;99.90
23717;DHT22;22094;52.130;5.598;2022-08-21T22:31:42;17.30;99.90
23717;DHT22;22094;52.130;5.598;2022-08-21T22:34:16;17.30;99.90
23717;DHT22;22094;52.130;5.598;2022-08-21T22:36:45;17.30;99.90
23717;DHT22;22094;52.130;5.598;2022-08-21T22:39:17;17.30;99.90
23717;DHT22;22094;52.130;5.598;2022-08-21T22:41:49;17.30;99.90
23717;DHT22;22094;52.130;5.598;2022-08-21T22:44:21;17.20;99.90